createdAt,value
2018-07-01T00:00:13.278Z,1012.23
2018-07-01T00:01:13.294Z,1012.18
2018-07-01T00:03:06.288Z,1012.11
2018-07-01T00:04:06.351Z,1012.13
2018-07-01T00:05:59.351Z,1012.15
2018-07-01T00:06:59.409Z,1012.15
2018-07-01T00:08:52.424Z,1012.16
2018-07-01T00:09:52.469Z,1012.20
2018-07-01T00:11:45.460Z,1012.17
2018-07-01T00:12:45.526Z,1012.20
2018-07-01T00:14:39.028Z,1012.20
2018-07-01T00:15:39.080Z,1012.21
2018-07-01T00:17:32.078Z,1012.17
2018-07-01T00:18:32.143Z,1012.20
2018-07-01T00:20:25.143Z,1012.20
2018-07-01T00:21:25.201Z,1012.20
2018-07-01T00:23:18.190Z,1012.20
2018-07-01T00:24:18.249Z,1012.21
2018-07-01T00:26:11.254Z,1012.19
2018-07-01T00:27:11.310Z,1012.16
2018-07-01T00:29:04.302Z,1012.15
2018-07-01T00:30:04.365Z,1012.13
2018-07-01T00:31:57.366Z,1012.11
2018-07-01T00:32:57.423Z,1012.13
2018-07-01T00:34:50.416Z,1012.19
2018-07-01T00:35:50.480Z,1012.14
2018-07-01T00:37:43.479Z,1012.13
2018-07-01T00:38:43.536Z,1012.14
2018-07-01T00:40:36.536Z,1012.12
2018-07-01T00:41:36.594Z,1012.08
2018-07-01T00:43:29.586Z,1012.08
2018-07-01T00:44:29.651Z,1012.05
2018-07-01T00:46:22.655Z,1012.06
2018-07-01T00:47:22.713Z,1011.99
2018-07-01T00:49:15.705Z,1011.99
2018-07-01T00:50:15.769Z,1012.01
2018-07-01T00:52:08.768Z,1011.98
2018-07-01T00:53:08.828Z,1011.98
2018-07-01T00:55:01.816Z,1011.95
2018-07-01T00:56:01.881Z,1011.97
2018-07-01T00:57:54.878Z,1011.93
2018-07-01T00:58:54.936Z,1011.96
2018-07-01T01:00:47.973Z,1011.91
2018-07-01T01:01:47.992Z,1011.95
2018-07-01T01:03:40.986Z,1011.89
2018-07-01T01:04:41.047Z,1011.89
2018-07-01T01:06:34.051Z,1011.93
2018-07-01T01:07:34.105Z,1011.89
2018-07-01T01:09:27.105Z,1011.82
2018-07-01T01:10:27.163Z,1011.85
2018-07-01T01:12:20.163Z,1011.91
2018-07-01T01:13:20.222Z,1011.88
2018-07-01T01:15:13.723Z,1011.89
2018-07-01T01:16:13.785Z,1011.94
2018-07-01T01:18:06.785Z,1011.92
2018-07-01T01:19:06.841Z,1011.97
2018-07-01T01:20:59.835Z,1011.99
2018-07-01T01:21:59.898Z,1011.96
2018-07-01T01:23:52.899Z,1011.98
2018-07-01T01:24:52.956Z,1011.98
2018-07-01T01:26:45.953Z,1011.98
2018-07-01T01:28:58.964Z,1011.99
2018-07-01T01:29:59.029Z,1012.01
2018-07-01T01:31:52.036Z,1012.04
2018-07-01T01:32:52.082Z,1012.03
2018-07-01T01:34:45.075Z,1012.11
2018-07-01T01:35:45.139Z,1012.05
2018-07-01T01:37:38.137Z,1012.07
2018-07-01T01:38:38.197Z,1012.02
2018-07-01T01:40:31.189Z,1012.00
2018-07-01T01:41:31.249Z,1012.03
2018-07-01T01:43:24.245Z,1012.02
2018-07-01T01:44:24.301Z,1012.01
2018-07-01T01:46:17.296Z,1012.05
2018-07-01T01:47:17.356Z,1012.03
2018-07-01T01:49:10.353Z,1012.02
2018-07-01T01:50:10.410Z,1012.02
2018-07-01T01:52:03.398Z,1012.05
2018-07-01T01:53:03.463Z,1012.08
2018-07-01T01:54:56.463Z,1012.07
2018-07-01T01:55:56.517Z,1012.11
2018-07-01T01:57:49.524Z,1012.12
2018-07-01T01:58:49.571Z,1012.18
2018-07-01T02:00:42.560Z,1012.16
2018-07-01T02:01:42.626Z,1012.16
2018-07-01T02:03:35.623Z,1012.17
2018-07-01T02:04:35.680Z,1012.16
2018-07-01T02:06:28.726Z,1012.20
2018-07-01T02:07:28.735Z,1012.18
2018-07-01T02:09:21.732Z,1012.20
2018-07-01T02:10:21.789Z,1012.23
2018-07-01T02:12:14.787Z,1012.24
2018-07-01T02:13:14.849Z,1012.24
2018-07-01T02:15:08.354Z,1012.22
2018-07-01T02:16:08.411Z,1012.19
2018-07-01T02:18:01.402Z,1012.21
2018-07-01T02:19:01.468Z,1012.18
2018-07-01T02:20:54.468Z,1012.20
2018-07-01T02:21:54.522Z,1012.18
2018-07-01T02:23:47.517Z,1012.17
2018-07-01T02:24:47.576Z,1012.22
2018-07-01T02:26:40.561Z,1012.24
2018-07-01T02:27:40.624Z,1012.24
2018-07-01T02:29:33.630Z,1012.25
2018-07-01T02:30:33.691Z,1012.25
2018-07-01T02:32:26.678Z,1012.31
2018-07-01T02:33:26.742Z,1012.30
2018-07-01T02:35:19.742Z,1012.33
2018-07-01T02:36:19.795Z,1012.35
2018-07-01T02:38:12.787Z,1012.37
2018-07-01T02:39:12.852Z,1012.33
2018-07-01T02:41:05.858Z,1012.40
2018-07-01T02:42:05.914Z,1012.38
2018-07-01T02:43:58.912Z,1012.34
2018-07-01T02:44:58.970Z,1012.31
2018-07-01T02:46:51.968Z,1012.35
2018-07-01T02:47:52.029Z,1012.32
2018-07-01T02:49:45.027Z,1012.30
2018-07-01T02:50:45.084Z,1012.33
2018-07-01T02:52:38.084Z,1012.30
2018-07-01T02:53:38.243Z,1012.33
2018-07-01T02:55:31.141Z,1012.31
2018-07-01T02:56:31.196Z,1012.34
2018-07-01T02:58:24.187Z,1012.34
2018-07-01T02:59:24.250Z,1012.37
2018-07-01T03:01:17.249Z,1012.39
2018-07-01T03:02:17.309Z,1012.37
2018-07-01T03:04:10.306Z,1012.36
2018-07-01T03:05:10.364Z,1012.37
2018-07-01T03:07:03.350Z,1012.41
2018-07-01T03:08:03.414Z,1012.43
2018-07-01T03:09:56.412Z,1012.44
2018-07-01T03:10:56.484Z,1012.48
2018-07-01T03:12:49.457Z,1012.45
2018-07-01T03:13:49.522Z,1012.44
2018-07-01T03:15:42.518Z,1012.50
2018-07-01T03:16:42.572Z,1012.44
2018-07-01T03:18:35.560Z,1012.47
2018-07-01T03:19:35.626Z,1012.49
2018-07-01T03:21:28.624Z,1012.49
2018-07-01T03:22:28.682Z,1012.48
2018-07-01T03:24:21.679Z,1012.50
2018-07-01T03:25:21.734Z,1012.49
2018-07-01T03:27:14.721Z,1012.49
2018-07-01T03:28:14.786Z,1012.49
2018-07-01T03:30:07.785Z,1012.47
2018-07-01T03:31:07.843Z,1012.50
2018-07-01T03:33:00.832Z,1012.53
2018-07-01T03:34:00.892Z,1012.52
2018-07-01T03:35:53.894Z,1012.56
2018-07-01T03:36:53.952Z,1012.59
2018-07-01T03:38:46.936Z,1012.59
2018-07-01T03:39:46.998Z,1012.59
2018-07-01T03:41:39.993Z,1012.61
2018-07-01T03:42:40.049Z,1012.62
2018-07-01T03:44:33.048Z,1012.65
2018-07-01T03:45:33.101Z,1012.63
2018-07-01T03:47:26.098Z,1012.64
2018-07-01T03:48:26.156Z,1012.66
2018-07-01T03:50:19.247Z,1012.64
2018-07-01T03:51:19.206Z,1012.63
2018-07-01T03:53:12.196Z,1012.67
2018-07-01T03:54:12.260Z,1012.65
2018-07-01T03:56:05.256Z,1012.66
2018-07-01T03:57:05.316Z,1012.67
2018-07-01T03:58:58.300Z,1012.71
2018-07-01T03:59:58.361Z,1012.72
2018-07-01T04:01:51.360Z,1012.76
2018-07-01T04:02:51.416Z,1012.75
2018-07-01T04:04:44.430Z,1012.77
2018-07-01T04:05:44.467Z,1012.76
2018-07-01T04:07:37.468Z,1012.77
2018-07-01T04:08:37.526Z,1012.74
2018-07-01T04:10:30.529Z,1012.79
2018-07-01T04:11:30.589Z,1012.77
2018-07-01T04:13:23.582Z,1012.79
2018-07-01T04:14:23.644Z,1012.79
2018-07-01T04:16:16.645Z,1012.79
2018-07-01T04:17:16.701Z,1012.74
2018-07-01T04:19:09.698Z,1012.75
2018-07-01T04:20:09.754Z,1012.77
2018-07-01T04:22:02.758Z,1012.73
2018-07-01T04:23:02.817Z,1012.73
2018-07-01T04:24:55.809Z,1012.76
2018-07-01T04:25:55.872Z,1012.75
2018-07-01T04:27:48.873Z,1012.80
2018-07-01T04:28:48.931Z,1012.81
2018-07-01T04:30:41.919Z,1012.83
2018-07-01T04:31:41.983Z,1012.84
2018-07-01T04:33:34.985Z,1012.80
2018-07-01T04:34:35.047Z,1012.84
2018-07-01T04:36:28.051Z,1012.81
2018-07-01T04:37:28.095Z,1012.82
2018-07-01T04:39:21.086Z,1012.82
2018-07-01T04:40:21.152Z,1012.85
2018-07-01T04:42:14.145Z,1012.88
2018-07-01T04:43:14.198Z,1012.86
2018-07-01T04:45:07.191Z,1012.87
2018-07-01T04:46:07.253Z,1012.91
2018-07-01T04:48:00.252Z,1012.88
2018-07-01T04:49:00.308Z,1012.91
2018-07-01T04:50:53.298Z,1012.97
2018-07-01T04:51:53.363Z,1012.93
2018-07-01T04:53:46.362Z,1012.96
2018-07-01T04:54:46.413Z,1012.96
2018-07-01T04:56:39.416Z,1012.91
2018-07-01T04:57:39.466Z,1012.96
2018-07-01T04:59:32.455Z,1013.02
2018-07-01T05:00:32.516Z,1013.01
2018-07-01T05:02:25.575Z,1013.00
2018-07-01T05:03:25.573Z,1012.97
2018-07-01T05:05:18.562Z,1013.03
2018-07-01T05:06:18.623Z,1013.02
2018-07-01T05:08:11.621Z,1013.04
2018-07-01T05:09:11.674Z,1013.04
2018-07-01T05:11:04.664Z,1013.03
2018-07-01T05:12:04.726Z,1013.05
2018-07-01T05:13:57.724Z,1013.02
2018-07-01T05:14:57.782Z,1013.09
2018-07-01T05:16:50.776Z,1013.11
2018-07-01T05:17:50.828Z,1013.14
2018-07-01T05:19:43.821Z,1013.14
2018-07-01T05:20:43.887Z,1013.14
2018-07-01T05:22:36.898Z,1013.07
2018-07-01T05:23:36.938Z,1013.09
2018-07-01T05:25:29.927Z,1013.07
2018-07-01T05:26:29.994Z,1013.06
2018-07-01T05:28:22.989Z,1013.08
2018-07-01T05:29:23.041Z,1013.13
2018-07-01T05:31:16.039Z,1013.15
2018-07-01T05:32:16.094Z,1013.26
2018-07-01T05:34:09.094Z,1013.16
2018-07-01T05:35:09.146Z,1013.13
2018-07-01T05:37:02.144Z,1013.14
2018-07-01T05:38:02.199Z,1013.16
2018-07-01T05:39:55.189Z,1013.19
2018-07-01T05:40:55.253Z,1013.13
2018-07-01T05:42:48.258Z,1013.15
2018-07-01T05:43:48.312Z,1013.17
2018-07-01T05:45:41.305Z,1013.26
2018-07-01T05:46:41.383Z,1013.23
2018-07-01T05:48:34.371Z,1013.23
2018-07-01T05:49:34.429Z,1013.27
2018-07-01T05:51:27.425Z,1013.21
2018-07-01T05:52:27.489Z,1013.29
2018-07-01T05:54:20.490Z,1013.30
2018-07-01T05:55:20.548Z,1013.27
2018-07-01T05:57:13.600Z,1013.28
2018-07-01T05:58:13.601Z,1013.31
2018-07-01T06:00:06.604Z,1013.28
2018-07-01T06:01:06.660Z,1013.24
2018-07-01T06:02:59.657Z,1013.25
2018-07-01T06:03:59.713Z,1013.23
2018-07-01T06:05:52.711Z,1013.26
2018-07-01T06:06:52.768Z,1013.27
2018-07-01T06:08:45.780Z,1013.31
2018-07-01T06:09:45.832Z,1013.36
2018-07-01T06:11:38.828Z,1013.39
2018-07-01T06:12:38.890Z,1013.40
2018-07-01T06:14:32.397Z,1013.45
2018-07-01T06:15:32.453Z,1013.45
2018-07-01T06:17:25.450Z,1013.52
2018-07-01T06:18:25.517Z,1013.57
2018-07-01T06:20:18.516Z,1013.53
2018-07-01T06:21:18.572Z,1013.54
2018-07-01T06:23:11.575Z,1013.67
2018-07-01T06:24:11.632Z,1013.73
2018-07-01T06:26:04.630Z,1013.75
2018-07-01T06:27:04.690Z,1013.77
2018-07-01T06:28:57.690Z,1013.76
2018-07-01T06:29:57.751Z,1013.72
2018-07-01T06:31:50.746Z,1013.84
2018-07-01T06:32:50.837Z,1013.81
2018-07-01T06:34:43.820Z,1013.84
2018-07-01T06:35:43.883Z,1013.83
2018-07-01T06:37:36.888Z,1013.93
2018-07-01T06:38:36.958Z,1013.92
2018-07-01T06:40:29.968Z,1014.05
2018-07-01T06:41:30.032Z,1013.99
2018-07-01T06:43:23.054Z,1013.97
2018-07-01T06:44:23.114Z,1014.04
2018-07-01T06:46:16.636Z,1014.00
2018-07-01T06:47:16.703Z,1013.98
2018-07-01T06:49:09.718Z,1013.99
2018-07-01T06:50:09.785Z,1013.97
2018-07-01T06:52:02.800Z,1013.99
2018-07-01T06:53:02.871Z,1014.02
2018-07-01T06:54:55.889Z,1014.01
2018-07-01T06:55:55.956Z,1014.00
2018-07-01T06:57:48.974Z,1014.06
2018-07-01T06:58:49.064Z,1014.01
2018-07-01T07:00:42.071Z,1014.22
2018-07-01T07:01:42.139Z,1014.07
2018-07-01T07:03:35.164Z,1014.08
2018-07-01T07:04:35.228Z,1014.11
2018-07-01T07:06:28.292Z,1014.12
2018-07-01T07:07:28.340Z,1014.07
2018-07-01T07:09:21.341Z,1014.11
2018-07-01T07:10:21.407Z,1014.10
2018-07-01T07:12:14.424Z,1014.09
2018-07-01T07:13:14.500Z,1014.16
2018-07-01T07:15:07.528Z,1014.16
2018-07-01T07:16:07.610Z,1014.18
2018-07-01T07:18:00.609Z,1014.13
2018-07-01T07:19:00.688Z,1014.22
2018-07-01T07:20:53.708Z,1014.18
2018-07-01T07:21:53.778Z,1014.34
2018-07-01T07:23:46.802Z,1014.21
2018-07-01T07:24:46.878Z,1014.22
2018-07-01T07:26:39.900Z,1014.25
2018-07-01T07:27:39.974Z,1014.18
2018-07-01T07:29:32.994Z,1014.15
2018-07-01T07:30:33.064Z,1014.07
2018-07-01T07:32:26.080Z,1014.19
2018-07-01T07:33:26.158Z,1014.05
2018-07-01T07:35:19.184Z,1014.13
2018-07-01T07:36:19.253Z,1014.02
2018-07-01T07:38:12.273Z,1014.03
2018-07-01T07:39:12.349Z,1013.96
2018-07-01T07:41:05.374Z,1014.04
2018-07-01T07:42:05.446Z,1013.93
2018-07-01T07:43:58.464Z,1014.00
2018-07-01T07:44:58.572Z,1014.02
2018-07-01T07:46:52.074Z,1014.05
2018-07-01T07:47:52.142Z,1014.02
2018-07-01T07:49:45.169Z,1013.95
2018-07-01T07:50:45.239Z,1013.90
2018-07-01T07:52:38.264Z,1013.97
2018-07-01T07:53:38.334Z,1014.05
2018-07-01T07:55:31.361Z,1013.90
2018-07-01T07:56:31.469Z,1013.93
2018-07-01T07:58:24.451Z,1014.09
2018-07-01T07:59:24.541Z,1013.92
2018-07-01T08:01:17.575Z,1014.01
2018-07-01T08:02:17.648Z,1014.08
2018-07-01T08:04:10.668Z,1014.02
2018-07-01T08:05:10.751Z,1014.03
2018-07-01T08:07:03.787Z,1014.06
2018-07-01T08:08:03.924Z,1013.99
2018-07-01T08:09:56.879Z,1014.04
2018-07-01T08:10:56.957Z,1014.03
2018-07-01T08:12:50.046Z,1013.98
2018-07-01T08:13:50.063Z,1013.98
2018-07-01T08:15:43.129Z,1014.05
2018-07-01T08:16:43.167Z,1014.00
2018-07-01T08:18:36.191Z,1014.14
2018-07-01T08:19:36.264Z,1014.09
2018-07-01T08:21:29.300Z,1014.25
2018-07-01T08:22:29.388Z,1014.15
2018-07-01T08:24:22.395Z,1014.31
2018-07-01T08:25:22.475Z,1014.16
2018-07-01T08:27:15.510Z,1014.14
2018-07-01T08:28:15.573Z,1014.11
2018-07-01T08:30:08.595Z,1014.09
2018-07-01T08:31:08.675Z,1014.05
2018-07-01T08:33:01.712Z,1014.20
2018-07-01T08:34:01.784Z,1014.07
2018-07-01T08:35:54.809Z,1014.10
2018-07-01T08:36:54.880Z,1014.17
2018-07-01T08:38:47.906Z,1014.16
2018-07-01T08:39:47.982Z,1014.31
2018-07-01T08:41:41.008Z,1014.39
2018-07-01T08:42:41.096Z,1014.27
2018-07-01T08:44:34.101Z,1014.20
2018-07-01T08:45:34.183Z,1014.24
2018-07-01T08:47:27.207Z,1014.18
2018-07-01T08:48:27.278Z,1014.14
2018-07-01T08:50:20.808Z,1014.12
2018-07-01T08:51:20.888Z,1014.14
2018-07-01T08:53:13.914Z,1014.15
2018-07-01T08:54:13.989Z,1014.11
2018-07-01T08:56:07.013Z,1014.15
2018-07-01T08:57:07.093Z,1014.19
2018-07-01T08:59:00.124Z,1014.11
2018-07-01T09:00:00.196Z,1014.18
2018-07-01T09:01:53.234Z,1014.16
2018-07-01T09:02:53.301Z,1014.13
2018-07-01T09:04:46.320Z,1014.12
2018-07-01T09:05:46.400Z,1014.04
2018-07-01T09:07:39.430Z,1014.27
2018-07-01T09:08:39.526Z,1014.24
2018-07-01T09:10:32.527Z,1014.22
2018-07-01T09:11:32.598Z,1014.16
2018-07-01T09:13:25.633Z,1014.17
2018-07-01T09:14:25.705Z,1014.18
2018-07-01T09:16:18.726Z,1014.12
2018-07-01T09:17:18.869Z,1014.13
2018-07-01T09:19:11.837Z,1014.16
2018-07-01T09:20:11.911Z,1014.12
2018-07-01T09:22:04.935Z,1014.14
2018-07-01T09:23:05.020Z,1014.27
2018-07-01T09:24:58.061Z,1014.20
2018-07-01T09:25:58.123Z,1014.21
2018-07-01T09:27:51.151Z,1014.14
2018-07-01T09:28:51.229Z,1014.31
2018-07-01T09:30:44.251Z,1014.09
2018-07-01T09:31:44.329Z,1014.24
2018-07-01T09:33:37.363Z,1014.25
2018-07-01T09:34:37.455Z,1014.23
2018-07-01T09:36:30.456Z,1014.08
2018-07-01T09:37:30.532Z,1013.94
2018-07-01T09:39:23.567Z,1013.67
2018-07-01T09:40:23.638Z,1013.74
2018-07-01T09:42:16.658Z,1013.74
2018-07-01T09:43:16.741Z,1013.78
2018-07-01T09:45:09.761Z,1013.82
2018-07-01T09:46:09.822Z,1013.68
2018-07-01T09:48:02.847Z,1013.63
2018-07-01T09:49:02.915Z,1013.64
2018-07-01T09:50:55.965Z,1013.62
2018-07-01T09:51:56.009Z,1013.64
2018-07-01T09:53:49.019Z,1013.56
2018-07-01T09:54:49.223Z,1013.58
2018-07-01T09:56:42.602Z,1013.48
2018-07-01T09:57:42.670Z,1013.61
2018-07-01T09:59:35.689Z,1013.48
2018-07-01T10:00:35.773Z,1013.39
2018-07-01T10:02:28.768Z,1013.50
2018-07-01T10:03:28.834Z,1013.48
2018-07-01T10:05:21.863Z,1013.39
2018-07-01T10:06:21.928Z,1013.44
2018-07-01T10:08:14.940Z,1013.48
2018-07-01T10:09:15.008Z,1013.50
2018-07-01T10:11:08.030Z,1013.44
2018-07-01T10:12:08.100Z,1013.40
2018-07-01T10:14:01.113Z,1013.30
2018-07-01T10:15:01.176Z,1013.48
2018-07-01T10:16:54.182Z,1013.44
2018-07-01T10:17:54.254Z,1013.46
2018-07-01T10:19:47.267Z,1013.49
2018-07-01T10:20:47.329Z,1013.55
2018-07-01T10:22:40.341Z,1013.51
2018-07-01T10:23:40.411Z,1013.52
2018-07-01T10:25:33.421Z,1013.53
2018-07-01T10:26:33.526Z,1013.70
2018-07-01T10:28:26.491Z,1013.54
2018-07-01T10:29:26.555Z,1013.57
2018-07-01T10:31:19.572Z,1013.44
2018-07-01T10:32:19.632Z,1013.43
2018-07-01T10:34:12.639Z,1013.48
2018-07-01T10:35:12.701Z,1013.43
2018-07-01T10:37:05.705Z,1013.42
2018-07-01T10:38:05.780Z,1013.49
2018-07-01T10:39:58.796Z,1013.47
2018-07-01T10:40:58.853Z,1013.62
2018-07-01T10:42:51.854Z,1013.42
2018-07-01T10:43:51.924Z,1013.36
2018-07-01T10:45:44.986Z,1013.45
2018-07-01T10:46:44.994Z,1013.36
2018-07-01T10:48:37.995Z,1013.34
2018-07-01T10:49:38.064Z,1013.40
2018-07-01T10:51:31.077Z,1013.27
2018-07-01T10:52:31.135Z,1013.23
2018-07-01T10:54:24.149Z,1013.18
2018-07-01T10:55:24.222Z,1013.30
2018-07-01T10:57:17.234Z,1013.33
2018-07-01T10:58:17.298Z,1013.33
2018-07-01T11:00:10.308Z,1013.36
2018-07-01T11:01:10.367Z,1013.21
2018-07-01T11:03:03.370Z,1013.15
2018-07-01T11:04:03.438Z,1013.22
2018-07-01T11:05:56.487Z,1013.23
2018-07-01T11:06:56.509Z,1013.20
2018-07-01T11:08:49.510Z,1013.08
2018-07-01T11:09:49.577Z,1013.08
2018-07-01T11:11:42.633Z,1012.97
2018-07-01T11:12:42.645Z,1013.11
2018-07-01T11:14:35.651Z,1013.11
2018-07-01T11:15:35.718Z,1013.19
2018-07-01T11:17:28.722Z,1013.05
2018-07-01T11:18:28.788Z,1013.02
2018-07-01T11:20:21.823Z,1013.06
2018-07-01T11:21:21.861Z,1013.04
2018-07-01T11:23:14.859Z,1013.00
2018-07-01T11:24:14.926Z,1012.99
2018-07-01T11:26:07.937Z,1013.01
2018-07-01T11:27:08.304Z,1013.00
2018-07-01T11:29:01.002Z,1013.04
2018-07-01T11:30:01.065Z,1012.91
2018-07-01T11:31:54.079Z,1012.91
2018-07-01T11:32:54.142Z,1012.95
2018-07-01T11:34:47.152Z,1012.96
2018-07-01T11:35:47.223Z,1013.03
2018-07-01T11:37:40.227Z,1013.00
2018-07-01T11:38:40.291Z,1012.95
2018-07-01T11:40:33.294Z,1012.94
2018-07-01T11:41:33.363Z,1012.84
2018-07-01T11:43:26.371Z,1012.93
2018-07-01T11:44:26.433Z,1012.93
2018-07-01T11:46:19.451Z,1013.02
2018-07-01T11:47:19.529Z,1013.01
2018-07-01T11:49:12.530Z,1012.89
2018-07-01T11:50:12.595Z,1012.95
2018-07-01T11:52:05.613Z,1012.99
2018-07-01T11:53:05.694Z,1012.89
2018-07-01T11:54:58.683Z,1012.95
2018-07-01T11:55:58.760Z,1013.03
2018-07-01T11:57:51.768Z,1013.00
2018-07-01T11:58:51.832Z,1013.06
2018-07-01T12:00:44.825Z,1012.90
2018-07-01T12:01:44.915Z,1012.95
2018-07-01T12:03:37.900Z,1012.93
2018-07-01T12:04:37.964Z,1012.92
2018-07-01T12:06:30.969Z,1012.90
2018-07-01T12:07:31.035Z,1012.97
2018-07-01T12:09:24.047Z,1012.85
2018-07-01T12:10:24.111Z,1012.85
2018-07-01T12:12:17.124Z,1012.82
2018-07-01T12:13:17.178Z,1012.81
2018-07-01T12:15:10.195Z,1012.75
2018-07-01T12:16:10.249Z,1012.80
2018-07-01T12:18:03.260Z,1012.82
2018-07-01T12:19:03.317Z,1012.95
2018-07-01T12:20:56.317Z,1012.87
2018-07-01T12:21:56.384Z,1012.82
2018-07-01T12:23:49.394Z,1012.83
2018-07-01T12:24:49.454Z,1012.81
2018-07-01T12:26:42.455Z,1012.69
2018-07-01T12:27:42.524Z,1012.74
2018-07-01T12:29:35.529Z,1012.75
2018-07-01T12:30:35.591Z,1012.57
2018-07-01T12:32:28.599Z,1012.63
2018-07-01T12:33:28.661Z,1012.64
2018-07-01T12:35:21.666Z,1012.60
2018-07-01T12:36:21.729Z,1012.61
2018-07-01T12:38:14.738Z,1012.61
2018-07-01T12:39:14.799Z,1012.61
2018-07-01T12:41:07.805Z,1012.57
2018-07-01T12:42:07.971Z,1012.52
2018-07-01T12:44:00.878Z,1012.62
2018-07-01T12:45:00.940Z,1012.49
2018-07-01T12:46:53.940Z,1012.45
2018-07-01T12:47:54.009Z,1012.44
2018-07-01T12:49:47.017Z,1012.40
2018-07-01T12:50:47.078Z,1012.38
2018-07-01T12:52:40.077Z,1012.43
2018-07-01T12:53:40.148Z,1012.49
2018-07-01T12:55:33.158Z,1012.36
2018-07-01T12:56:33.229Z,1012.25
2018-07-01T12:58:26.223Z,1012.40
2018-07-01T12:59:26.286Z,1012.32
2018-07-01T13:01:19.286Z,1012.42
2018-07-01T13:02:19.361Z,1012.39
2018-07-01T13:04:12.371Z,1012.39
2018-07-01T13:05:12.434Z,1012.29
2018-07-01T13:07:05.433Z,1012.35
2018-07-01T13:08:05.501Z,1012.34
2018-07-01T13:09:58.505Z,1012.34
2018-07-01T13:10:58.570Z,1012.33
2018-07-01T13:12:51.567Z,1012.23
2018-07-01T13:13:51.639Z,1012.28
2018-07-01T13:15:44.643Z,1012.21
2018-07-01T13:16:44.705Z,1012.19
2018-07-01T13:18:37.717Z,1012.26
2018-07-01T13:19:37.821Z,1012.25
2018-07-01T13:21:30.776Z,1012.26
2018-07-01T13:22:30.845Z,1012.26
2018-07-01T13:24:23.851Z,1012.18
2018-07-01T13:25:23.916Z,1012.19
2018-07-01T13:27:16.916Z,1012.32
2018-07-01T13:28:16.986Z,1012.17
2018-07-01T13:30:09.988Z,1012.15
2018-07-01T13:31:10.052Z,1012.13
2018-07-01T13:33:03.052Z,1012.14
2018-07-01T13:34:03.120Z,1012.17
2018-07-01T13:35:56.147Z,1012.05
2018-07-01T13:36:56.192Z,1012.06
2018-07-01T13:38:49.190Z,1011.98
2018-07-01T13:39:49.266Z,1011.98
2018-07-01T13:41:42.268Z,1011.91
2018-07-01T13:42:42.364Z,1011.98
2018-07-01T13:44:35.334Z,1012.00
2018-07-01T13:45:35.398Z,1012.03
2018-07-01T13:47:28.394Z,1012.06
2018-07-01T13:48:28.463Z,1012.04
2018-07-01T13:50:21.476Z,1011.90
2018-07-01T13:51:21.536Z,1011.92
2018-07-01T13:53:14.543Z,1011.87
2018-07-01T13:54:14.614Z,1012.00
2018-07-01T13:56:07.656Z,1011.85
2018-07-01T13:57:07.705Z,1011.93
2018-07-01T13:59:01.192Z,1011.92
2018-07-01T14:00:01.258Z,1011.90
2018-07-01T14:01:54.277Z,1011.84
2018-07-01T14:02:54.326Z,1011.79
2018-07-01T14:04:58.973Z,1011.72
2018-07-01T14:05:59.035Z,1011.73
2018-07-01T14:07:52.036Z,1011.82
2018-07-01T14:08:52.101Z,1012.01
2018-07-01T14:10:45.113Z,1011.80
2018-07-01T14:11:45.173Z,1011.72
2018-07-01T14:13:38.174Z,1011.75
2018-07-01T14:14:38.241Z,1011.74
2018-07-01T14:16:31.250Z,1011.76
2018-07-01T14:17:31.371Z,1011.68
2018-07-01T14:19:24.313Z,1011.67
2018-07-01T14:20:24.380Z,1011.57
2018-07-01T14:22:17.392Z,1011.58
2018-07-01T14:23:17.453Z,1011.57
2018-07-01T14:25:10.468Z,1011.49
2018-07-01T14:26:10.531Z,1011.51
2018-07-01T14:28:03.531Z,1011.48
2018-07-01T14:29:03.600Z,1011.48
2018-07-01T14:30:56.606Z,1011.45
2018-07-01T14:31:56.666Z,1011.46
2018-07-01T14:33:49.674Z,1011.49
2018-07-01T14:34:49.738Z,1011.40
2018-07-01T14:36:42.746Z,1011.59
2018-07-01T14:37:42.807Z,1011.47
2018-07-01T14:39:35.811Z,1011.49
2018-07-01T14:40:35.876Z,1011.48
2018-07-01T14:42:28.884Z,1011.48
2018-07-01T14:43:28.949Z,1011.42
2018-07-01T14:45:21.944Z,1011.45
2018-07-01T14:46:22.014Z,1011.43
2018-07-01T14:48:15.034Z,1011.32
2018-07-01T14:49:15.156Z,1011.40
2018-07-01T14:51:08.095Z,1011.38
2018-07-01T14:52:08.156Z,1011.42
2018-07-01T14:54:01.668Z,1011.38
2018-07-01T14:55:01.734Z,1011.36
2018-07-01T14:56:54.742Z,1011.39
2018-07-01T14:57:54.800Z,1011.41
2018-07-01T14:59:47.811Z,1011.42
2018-07-01T15:00:47.870Z,1011.35
2018-07-01T15:02:40.877Z,1011.37
2018-07-01T15:03:40.937Z,1011.40
2018-07-01T15:05:33.936Z,1011.34
2018-07-01T15:06:34.009Z,1011.31
2018-07-01T15:08:27.014Z,1011.42
2018-07-01T15:09:27.075Z,1011.40
2018-07-01T15:11:20.082Z,1011.35
2018-07-01T15:12:20.143Z,1011.38
2018-07-01T15:14:13.156Z,1011.38
2018-07-01T15:15:13.220Z,1011.49
2018-07-01T15:17:06.227Z,1011.39
2018-07-01T15:18:06.288Z,1011.36
2018-07-01T15:19:59.289Z,1011.31
2018-07-01T15:20:59.355Z,1011.29
2018-07-01T15:22:52.365Z,1011.34
2018-07-01T15:23:52.431Z,1011.28
2018-07-01T15:25:45.424Z,1011.21
2018-07-01T15:26:45.496Z,1011.24
2018-07-01T15:28:38.503Z,1011.26
2018-07-01T15:29:38.564Z,1011.21
2018-07-01T15:31:31.572Z,1011.29
2018-07-01T15:32:31.633Z,1011.24
2018-07-01T15:34:24.639Z,1011.16
2018-07-01T15:35:24.701Z,1011.13
2018-07-01T15:37:17.707Z,1011.25
2018-07-01T15:38:17.777Z,1011.14
2018-07-01T15:40:10.798Z,1011.12
2018-07-01T15:41:10.845Z,1011.11
2018-07-01T15:43:03.853Z,1011.10
2018-07-01T15:44:03.914Z,1011.10
2018-07-01T15:45:56.915Z,1011.04
2018-07-01T15:46:56.985Z,1011.08
2018-07-01T15:48:49.989Z,1011.07
2018-07-01T15:49:50.052Z,1011.09
2018-07-01T15:51:43.563Z,1011.14
2018-07-01T15:52:43.629Z,1010.94
2018-07-01T15:54:36.635Z,1011.03
2018-07-01T15:55:36.698Z,1011.02
2018-07-01T15:57:29.699Z,1011.03
2018-07-01T15:58:29.767Z,1010.96
2018-07-01T16:00:22.774Z,1010.93
2018-07-01T16:01:22.835Z,1010.96
2018-07-01T16:03:15.847Z,1010.89
2018-07-01T16:04:15.905Z,1010.89
2018-07-01T16:06:08.914Z,1010.85
2018-07-01T16:07:08.985Z,1010.81
2018-07-01T16:09:01.991Z,1010.78
2018-07-01T16:10:02.066Z,1010.82
2018-07-01T16:11:55.080Z,1010.84
2018-07-01T16:12:55.125Z,1010.86
2018-07-01T16:14:48.133Z,1010.83
2018-07-01T16:15:48.243Z,1010.85
2018-07-01T16:17:41.213Z,1010.80
2018-07-01T16:18:41.264Z,1010.79
2018-07-01T16:20:34.273Z,1010.80
2018-07-01T16:21:34.334Z,1010.74
2018-07-01T16:23:27.348Z,1010.82
2018-07-01T16:24:27.405Z,1010.79
2018-07-01T16:26:20.404Z,1010.73
2018-07-01T16:27:20.472Z,1010.80
2018-07-01T16:29:13.478Z,1010.74
2018-07-01T16:30:13.558Z,1010.74
2018-07-01T16:32:06.542Z,1010.80
2018-07-01T16:33:06.618Z,1010.76
2018-07-01T16:34:59.617Z,1010.74
2018-07-01T16:35:59.677Z,1010.82
2018-07-01T16:37:52.681Z,1010.77
2018-07-01T16:38:52.745Z,1010.80
2018-07-01T16:40:45.818Z,1010.86
2018-07-01T16:41:45.820Z,1010.94
2018-07-01T16:43:38.826Z,1010.91
2018-07-01T16:44:38.888Z,1010.83
2018-07-01T16:46:31.900Z,1010.84
2018-07-01T16:47:31.963Z,1010.85
2018-07-01T16:49:25.001Z,1010.86
2018-07-01T16:50:25.034Z,1010.92
2018-07-01T16:52:18.590Z,1010.93
2018-07-01T16:53:18.608Z,1010.88
2018-07-01T16:55:11.618Z,1010.88
2018-07-01T16:56:11.679Z,1010.83
2018-07-01T16:58:04.673Z,1010.90
2018-07-01T16:59:04.755Z,1010.89
2018-07-01T17:00:57.755Z,1010.87
2018-07-01T17:01:57.811Z,1010.90
2018-07-01T17:03:50.813Z,1010.93
2018-07-01T17:04:50.882Z,1010.86
2018-07-01T17:06:43.896Z,1010.89
2018-07-01T17:07:43.957Z,1010.94
2018-07-01T17:09:36.967Z,1010.91
2018-07-01T17:10:37.025Z,1010.80
2018-07-01T17:12:30.040Z,1010.88
2018-07-01T17:13:30.144Z,1010.83
2018-07-01T17:15:23.107Z,1010.85
2018-07-01T17:16:23.171Z,1010.84
2018-07-01T17:18:16.168Z,1010.87
2018-07-01T17:19:16.236Z,1010.88
2018-07-01T17:21:09.240Z,1010.93
2018-07-01T17:22:09.328Z,1010.90
2018-07-01T17:24:02.303Z,1010.91
2018-07-01T17:25:02.375Z,1010.95
2018-07-01T17:26:55.376Z,1010.88